Terminal Aerodrome Forecast
Issued by NWS Quad Cities IA IL

Home | Current Version | Previous Version | Text Only | Print | Product List | Glossary On
Versions: 1 2 3 4 5 6 7 8 9 10 11 12 13 14 15 16 17 18 19 20
000
FTUS43 KDVN 212000 AAA
TAFMLI
TAF AMD
KMLI 212018Z 2120/2218 18007KT P6SM VCSH SCT080 BKN120
      TEMPO 2120/2122 5SM -SHRA SCT050 BKN080
     FM212200 19009KT P6SM SCT080 BKN150
     FM220400 17005KT P6SM VCTS SCT050CB BKN200
     FM221200 24005KT P6SM BKN120=

USA.gov is the U.S. government's official web portal to all federal, state and local government web resources and services.